CheckWX is a tool to help pilots better visualize weather data.  It is not intended as a substitute for an official pre-flight weather briefing.

02:40:31 UTC

KBIS TAF
Bismarck Municipal Airport
Bismarck, North Dakota, USA
KBIS 172325Z 1800/1824 36007KT P6SM OVC110 FM180700 34005KT P6SM OVC030 FM180900 VRB04KT P6SM BKN015 FM181200 35005KT P6SM OVC009 FM181600 VRB04KT P6SM OVC015

Feb-18@
00:00 UTC

Feb-18 @ 00:00 UTC

Feb-18@
07:00 UTC

Feb-18 @ 07:00 UTC

KBIS 172325Z 1800/1824 36007KT P6SM OVC110
Wind
  • 360° at 7 KTS
Visibility
Greater than 6 SM
Cloud Levels
  • Overcast at 11,000' AGL

Feb-18@
07:00 UTC

Feb-18 @ 07:00 UTC

Feb-18@
09:00 UTC

Feb-18 @ 09:00 UTC

FM180700 34005KT P6SM OVC030

From

FromStandard forecast or significant change

Wind
  • 340° at 5 KTS
Visibility
Greater than 6 SM
Cloud Levels
  • Overcast at 3,000' AGL

Feb-18@
09:00 UTC

Feb-18 @ 09:00 UTC

Feb-18@
12:00 UTC

Feb-18 @ 12:00 UTC

FM180900 VRB04KT P6SM BKN015

From

FromStandard forecast or significant change

Wind
  • Variable at 4 KTS
Visibility
Greater than 6 SM
Cloud Levels
  • Broken at 1,500' AGL

Feb-18@
12:00 UTC

Feb-18 @ 12:00 UTC

Feb-18@
16:00 UTC

Feb-18 @ 16:00 UTC

FM181200 35005KT P6SM OVC009

From

FromStandard forecast or significant change

Wind
  • 350° at 5 KTS
Visibility
Greater than 6 SM
Cloud Levels
  • Overcast at 900' AGL

Feb-18@
16:00 UTC

Feb-18 @ 16:00 UTC

Feb-19@
00:00 UTC

Feb-19 @ 00:00 UTC

FM181600 VRB04KT P6SM OVC015

From

FromStandard forecast or significant change

Wind
  • Variable at 4 KTS
Visibility
Greater than 6 SM
Cloud Levels
  • Overcast at 1,500' AGL